Time;durP1;ratioP1;P1;durP2;ratioP2;P2;SDS_P1;SDS_P2;PMS_P1;PMS_P2;Temp;Humidity;BMP_temperature;BMP_pressure;BME280_temperature;BME280_humidity;BME280_pressure;Samples;Min_cycle;Max_cycle;Signal;HPM_P1;HPM_P2
2023/01/07 00:01:42;;;;;;;3.73;2.67;;;7.30;99.90;;;;;;4973518;28;20034;-86
2023/01/07 00:04:11;;;;;;;3.73;2.67;;;7.20;99.90;;;;;;4974271;28;20423;-87
2023/01/07 00:06:39;;;;;;;3.67;2.93;;;7.20;99.90;;;;;;4974261;28;20030;-86
2023/01/07 00:09:07;;;;;;;5.00;2.60;;;7.20;99.90;;;;;;4977392;28;20031;-86
2023/01/07 00:11:35;;;;;;;4.73;2.67;;;7.20;99.90;;;;;;4980233;28;20070;-86
2023/01/07 00:14:03;;;;;;;3.60;2.50;;;7.20;99.90;;;;;;4981485;28;20107;-86
2023/01/07 00:16:30;;;;;;;4.60;2.47;;;7.20;99.90;;;;;;4983468;28;20018;-86
2023/01/07 00:18:57;;;;;;;4.73;2.60;;;7.20;99.90;;;;;;4998823;28;20121;-86
2023/01/07 00:21:25;;;;;;;5.93;2.80;;;7.20;99.90;;;;;;4978448;28;20081;-86
2023/01/07 00:23:56;;;;;;;4.13;2.77;;;7.20;99.90;;;;;;4978351;28;20034;-84
2023/01/07 00:26:24;;;;;;;5.37;2.83;;;7.20;99.90;;;;;;4976749;28;20063;-85
2023/01/07 00:28:51;;;;;;;3.57;2.60;;;7.20;99.90;;;;;;4977799;28;20106;-84
2023/01/07 00:31:26;;;;;;;4.27;3.10;;;7.20;99.90;;;;;;4978063;28;20031;-85
2023/01/07 00:36:26;;;;;;;6.40;3.70;;;7.20;99.90;;;;;;4978243;28;20262;-85
2023/01/07 00:39:03;;;;;;;9.00;3.17;;;7.20;99.90;;;;;;4977743;28;20033;-85
2023/01/07 00:41:29;;;;;;;4.13;2.80;;;7.20;99.90;;;;;;4988425;28;20035;-84
2023/01/07 00:43:55;;;;;;;5.67;2.90;;;7.20;99.90;;;;;;4976856;28;20042;-85
2023/01/07 00:46:21;;;;;;;4.50;2.70;;;7.20;99.90;;;;;;4980899;28;20857;-84
2023/01/07 00:48:46;;;;;;;3.53;2.40;;;7.20;99.90;;;;;;4982522;28;20046;-84
2023/01/07 00:51:13;;;;;;;4.70;2.90;;;7.20;99.90;;;;;;4996923;28;20459;-84
2023/01/07 00:53:39;;;;;;;3.93;2.73;;;7.20;99.90;;;;;;4992263;28;20042;-84
2023/01/07 00:56:04;;;;;;;3.83;2.80;;;7.20;99.90;;;;;;4989141;28;20030;-84
2023/01/07 00:58:30;;;;;;;5.13;2.93;;;7.20;99.90;;;;;;4979594;28;20066;-84
2023/01/07 01:00:58;;;;;;;4.40;3.03;;;7.20;99.90;;;;;;4977548;28;20038;-84
2023/01/07 01:03:24;;;;;;;6.00;3.03;;;7.10;99.90;;;;;;4986206;28;20035;-84
2023/01/07 01:05:51;;;;;;;5.17;3.10;;;7.10;99.90;;;;;;4977309;28;20479;-84
2023/01/07 01:08:17;;;;;;;8.70;3.23;;;7.10;99.90;;;;;;4977337;28;20427;-84
2023/01/07 01:10:45;;;;;;;4.03;2.53;;;7.10;99.90;;;;;;4977662;28;20031;-84
2023/01/07 01:13:14;;;;;;;3.90;2.50;;;7.10;99.90;;;;;;4975761;28;20031;-85
2023/01/07 01:15:45;;;;;;;4.00;2.53;;;7.10;99.90;;;;;;4981211;28;20044;-85
2023/01/07 01:18:10;;;;;;;3.47;2.60;;;7.10;99.90;;;;;;4996358;28;20031;-85
2023/01/07 01:20:36;;;;;;;3.87;2.50;;;7.10;99.90;;;;;;4990003;28;20045;-84
2023/01/07 01:23:03;;;;;;;4.10;2.90;;;7.10;99.90;;;;;;4992938;28;20027;-85
2023/01/07 01:25:28;;;;;;;4.43;2.70;;;7.00;99.90;;;;;;4992308;28;20050;-84
2023/01/07 01:27:54;;;;;;;3.87;2.30;;;7.00;99.90;;;;;;4977114;28;20031;-85
2023/01/07 01:30:20;;;;;;;3.67;2.80;;;7.00;99.90;;;;;;4976875;28;20034;-84
2023/01/07 01:32:45;;;;;;;3.73;2.57;;;7.00;99.90;;;;;;4976659;28;20422;-84
2023/01/07 01:35:11;;;;;;;3.13;2.37;;;7.00;99.90;;;;;;4976149;28;20035;-85
2023/01/07 01:37:36;;;;;;;3.37;2.20;;;7.00;99.90;;;;;;4976590;28;20038;-84
2023/01/07 01:40:03;;;;;;;3.33;2.40;;;7.00;99.90;;;;;;4976985;28;20037;-84
2023/01/07 01:42:30;;;;;;;4.00;2.53;;;7.00;99.90;;;;;;4976347;28;20035;-84
2023/01/07 01:45:00;;;;;;;3.20;2.50;;;7.00;99.90;;;;;;4977858;28;20047;-84
2023/01/07 01:47:52;;;;;;;3.17;2.33;;;7.00;99.90;;;;;;4976650;28;20039;-84
2023/01/07 01:50:37;;;;;;;3.80;2.70;;;7.00;99.90;;;;;;4969518;28;20030;-84
2023/01/07 01:53:28;;;;;;;4.43;3.00;;;7.00;99.90;;;;;;4976369;28;20023;-84
2023/01/07 01:56:11;;;;;;;3.50;2.33;;;7.00;99.90;;;;;;4979831;28;20026;-84
2023/01/07 01:58:44;;;;;;;3.83;2.80;;;7.00;99.90;;;;;;4978711;28;20027;-85
2023/01/07 02:01:09;;;;;;;4.70;3.10;;;7.00;99.90;;;;;;4971726;28;20106;-85
2023/01/07 02:03:37;;;;;;;3.33;2.50;;;7.00;99.90;;;;;;4981861;28;20180;-84
2023/01/07 02:06:08;;;;;;;4.17;2.73;;;7.00;99.90;;;;;;4986749;28;20035;-84
2023/01/07 02:08:33;;;;;;;4.77;2.60;;;7.00;99.90;;;;;;4978313;28;20031;-85
2023/01/07 02:10:59;;;;;;;3.60;2.83;;;7.00;99.90;;;;;;4992136;28;20030;-84
2023/01/07 02:13:43;;;;;;;4.43;2.70;;;6.90;99.90;;;;;;4984867;28;20468;-85
2023/01/07 02:16:42;;;;;;;3.90;2.50;;;7.00;99.90;;;;;;4979934;28;20059;-85
2023/01/07 02:19:19;;;;;;;3.03;2.30;;;6.90;99.90;;;;;;4980942;28;20089;-84
2023/01/07 02:22:12;;;;;;;3.23;2.50;;;7.00;99.90;;;;;;4977269;28;20022;-84
2023/01/07 02:25:01;;;;;;;3.53;2.70;;;6.90;99.90;;;;;;4978461;28;20026;-84
2023/01/07 02:27:48;;;;;;;2.93;2.30;;;6.90;99.90;;;;;;4970357;28;20049;-84
2023/01/07 02:30:51;;;;;;;5.93;2.83;;;6.90;99.90;;;;;;4986040;28;20018;-85
2023/01/07 02:33:28;;;;;;;4.10;2.50;;;6.90;99.90;;;;;;4979982;28;20026;-84
2023/01/07 02:36:10;;;;;;;4.27;2.70;;;6.90;99.90;;;;;;4974160;28;20042;-84
2023/01/07 02:39:02;;;;;;;2.93;2.33;;;6.90;99.90;;;;;;4971391;28;20417;-85
2023/01/07 02:41:58;;;;;;;3.50;2.50;;;6.90;99.90;;;;;;4975634;28;20022;-85
2023/01/07 02:44:42;;;;;;;3.83;2.47;;;6.90;99.90;;;;;;4982062;28;20023;-85
2023/01/07 02:47:27;;;;;;;2.83;2.10;;;6.90;99.90;;;;;;4992137;28;20031;-84
2023/01/07 02:49:53;;;;;;;3.90;2.47;;;6.90;99.90;;;;;;4956279;28;20022;-84
2023/01/07 02:52:27;;;;;;;6.17;2.50;;;6.90;99.90;;;;;;4980819;28;20045;-85
2023/01/07 02:55:15;;;;;;;3.40;2.40;;;6.90;99.90;;;;;;4972638;28;20690;-85
2023/01/07 02:58:05;;;;;;;4.10;2.63;;;6.90;99.90;;;;;;4955864;28;20031;-85
2023/01/07 03:00:57;;;;;;;3.70;2.57;;;6.90;99.90;;;;;;4984861;28;20026;-84
2023/01/07 03:03:41;;;;;;;4.87;2.37;;;6.80;99.90;;;;;;4981391;28;20047;-84
2023/01/07 03:06:18;;;;;;;5.90;2.50;;;6.80;99.90;;;;;;4977518;28;20041;-84
2023/01/07 03:08:52;;;;;;;3.37;2.40;;;6.80;99.90;;;;;;4980306;28;20027;-84
2023/01/07 03:11:22;;;;;;;3.97;2.30;;;6.80;99.90;;;;;;4981401;28;20097;-84
2023/01/07 03:13:59;;;;;;;4.00;2.33;;;6.80;99.90;;;;;;4975656;28;20075;-85
2023/01/07 03:16:34;;;;;;;2.93;2.10;;;6.80;99.90;;;;;;4978331;28;20407;-84
2023/01/07 03:19:02;;;;;;;;;;;6.80;99.90;;;;;;4980880;28;20034;-85
2023/01/07 03:21:31;;;;;;;2.97;2.03;;;6.80;99.90;;;;;;4986636;28;19906;-85
2023/01/07 03:23:58;;;;;;;3.40;2.13;;;6.80;99.90;;;;;;4975841;28;20046;-85
2023/01/07 03:26:31;;;;;;;3.70;2.40;;;6.80;99.90;;;;;;4978433;28;20022;-85
2023/01/07 03:28:59;;;;;;;2.73;2.10;;;6.80;99.90;;;;;;4975064;28;20379;-86
2023/01/07 03:31:26;;;;;;;3.37;2.40;;;6.80;99.90;;;;;;4975145;28;20460;-86
2023/01/07 03:34:00;;;;;;;3.80;2.33;;;6.80;99.90;;;;;;4974898;28;20027;-86
2023/01/07 03:36:39;;;;;;;3.73;2.23;;;6.90;99.90;;;;;;4974521;28;20023;-86
2023/01/07 03:39:07;;;;;;;3.37;2.27;;;6.80;99.90;;;;;;4974544;28;20435;-86
2023/01/07 03:44:17;;;;;;;4.13;2.27;;;6.80;99.90;;;;;;4960137;28;20089;-86
2023/01/07 03:46:43;;;;;;;3.33;2.20;;;6.80;99.90;;;;;;4974930;28;20035;-86
2023/01/07 03:49:08;;;;;;;4.03;2.43;;;6.80;99.90;;;;;;4974621;28;20037;-86
2023/01/07 03:51:34;;;;;;;3.80;2.50;;;6.80;99.90;;;;;;4974292;28;20019;-86
2023/01/07 03:53:59;;;;;;;4.43;2.23;;;6.90;99.90;;;;;;4974309;28;20113;-86
2023/01/07 03:56:25;;;;;;;3.10;2.00;;;6.80;99.90;;;;;;4974562;28;20089;-86
2023/01/07 03:58:51;;;;;;;2.90;2.20;;;6.90;99.90;;;;;;4974781;28;20038;-86
2023/01/07 04:01:16;;;;;;;4.47;2.30;;;6.90;99.90;;;;;;4974329;28;20458;-86
2023/01/07 04:03:42;;;;;;;3.03;2.37;;;6.90;99.90;;;;;;4973294;28;20023;-86
2023/01/07 04:06:07;;;;;;;3.23;2.47;;;6.90;99.90;;;;;;4974171;28;20042;-86
2023/01/07 04:08:35;;;;;;;4.20;2.30;;;6.90;99.90;;;;;;4983243;28;20030;-87
2023/01/07 04:11:01;;;;;;;3.30;2.20;;;6.90;99.90;;;;;;4976042;28;20027;-85
2023/01/07 04:13:27;;;;;;;2.80;2.20;;;6.90;99.90;;;;;;4974362;28;20419;-85
2023/01/07 04:15:52;;;;;;;3.93;2.40;;;6.90;99.90;;;;;;4991797;28;20054;-85
2023/01/07 04:18:18;;;;;;;2.93;2.20;;;6.90;99.90;;;;;;4993806;28;20060;-85
2023/01/07 04:20:47;;;;;;;2.60;2.00;;;6.80;99.90;;;;;;4993917;28;20027;-85
2023/01/07 04:23:16;;;;;;;2.70;2.10;;;6.90;99.90;;;;;;4994827;28;20031;-85
2023/01/07 04:25:44;;;;;;;2.83;2.00;;;6.80;99.90;;;;;;4996296;28;20033;-85
2023/01/07 04:28:10;;;;;;;3.63;2.90;;;6.90;99.90;;;;;;4979978;28;20035;-85
2023/01/07 04:30:37;;;;;;;6.07;4.70;;;6.90;99.90;;;;;;4977228;28;20122;-84
2023/01/07 04:33:03;;;;;;;5.07;4.20;;;6.90;99.90;;;;;;4989929;28;20026;-85
2023/01/07 04:35:29;;;;;;;4.30;3.43;;;6.90;99.90;;;;;;4983738;28;20027;-85
2023/01/07 04:37:54;;;;;;;4.47;3.30;;;6.90;99.90;;;;;;4977667;28;20102;-85
2023/01/07 04:40:20;;;;;;;3.90;2.83;;;6.80;99.90;;;;;;4977956;28;20074;-85
2023/01/07 04:42:45;;;;;;;3.40;2.60;;;6.80;99.90;;;;;;4983216;28;20084;-85
2023/01/07 04:45:11;;;;;;;3.00;2.40;;;6.80;99.90;;;;;;4974267;28;20054;-85
2023/01/07 04:47:36;;;;;;;4.70;2.47;;;6.80;99.90;;;;;;4975102;28;20046;-85
2023/01/07 04:50:03;;;;;;;3.60;2.30;;;6.80;99.90;;;;;;4976544;28;20420;-85
2023/01/07 04:52:28;;;;;;;4.93;2.70;;;6.80;99.90;;;;;;4976736;28;20105;-86
2023/01/07 04:54:54;;;;;;;5.03;2.63;;;6.80;99.90;;;;;;4974927;28;20474;-86
2023/01/07 04:57:19;;;;;;;2.87;2.20;;;6.80;99.90;;;;;;4976100;28;20073;-85
2023/01/07 04:59:45;;;;;;;3.30;2.30;;;6.80;99.90;;;;;;4988146;28;20059;-85
2023/01/07 05:02:10;;;;;;;4.13;2.93;;;6.80;99.90;;;;;;4989521;28;20416;-85
2023/01/07 05:04:36;;;;;;;3.20;2.50;;;6.80;99.90;;;;;;4977341;28;20101;-85
2023/01/07 05:07:01;;;;;;;5.07;2.33;;;6.70;99.90;;;;;;4994867;28;20026;-85
2023/01/07 05:09:27;;;;;;;3.13;2.47;;;6.70;99.90;;;;;;4989456;28;20089;-85
2023/01/07 05:11:52;;;;;;;3.90;2.37;;;6.70;99.90;;;;;;4977333;28;20039;-85
2023/01/07 05:14:18;;;;;;;4.23;2.40;;;6.70;99.90;;;;;;4980591;28;20026;-85
2023/01/07 05:16:44;;;;;;;3.83;2.40;;;6.70;99.90;;;;;;4979690;28;20027;-84
2023/01/07 05:19:10;;;;;;;3.60;2.50;;;6.70;99.90;;;;;;4979331;28;20031;-85
2023/01/07 05:21:36;;;;;;;3.60;2.30;;;6.60;99.90;;;;;;4977100;28;20404;-85
2023/01/07 05:24:01;;;;;;;6.57;2.57;;;6.60;99.90;;;;;;4976446;28;20030;-84
2023/01/07 05:26:27;;;;;;;5.30;2.60;;;6.50;99.90;;;;;;4983428;28;20031;-85
2023/01/07 05:28:53;;;;;;;3.43;2.40;;;6.50;99.90;;;;;;4977382;28;20031;-85
2023/01/07 05:31:19;;;;;;;5.10;2.60;;;6.40;99.90;;;;;;4975777;28;20114;-85
2023/01/07 05:33:45;;;;;;;5.73;2.50;;;6.30;99.90;;;;;;4984178;28;20054;-85
2023/01/07 05:36:11;;;;;;;5.90;4.00;;;6.20;99.90;;;;;;4979522;28;20081;-85
2023/01/07 05:38:37;;;;;;;4.70;2.90;;;6.10;99.90;;;;;;4981617;28;20030;-83
2023/01/07 05:41:03;;;;;;;4.00;3.00;;;6.10;99.90;;;;;;4985781;28;20029;-85
2023/01/07 05:43:29;;;;;;;5.37;2.80;;;6.00;99.90;;;;;;4998627;28;20352;-85
2023/01/07 05:45:54;;;;;;;3.47;2.67;;;5.90;99.90;;;;;;4986753;28;20137;-85
2023/01/07 05:48:20;;;;;;;8.40;4.97;;;5.80;99.90;;;;;;4989302;28;20038;-85
2023/01/07 05:50:46;;;;;;;6.20;3.77;;;5.70;99.90;;;;;;4995865;28;20034;-85
2023/01/07 05:53:12;;;;;;;4.00;2.77;;;5.70;99.90;;;;;;4988045;28;20395;-85
2023/01/07 05:55:37;;;;;;;4.43;2.73;;;5.60;99.90;;;;;;4976347;28;20102;-85
2023/01/07 05:58:04;;;;;;;3.97;2.90;;;5.60;99.90;;;;;;4976348;28;20069;-85
2023/01/07 06:00:29;;;;;;;4.10;2.90;;;5.50;99.90;;;;;;4982737;28;20449;-85
2023/01/07 06:02:55;;;;;;;4.63;2.70;;;5.50;99.90;;;;;;4978063;28;20034;-87
2023/01/07 06:05:21;;;;;;;4.33;2.83;;;5.40;99.90;;;;;;4984115;28;20088;-87
2023/01/07 06:07:47;;;;;;;3.13;2.43;;;5.30;99.90;;;;;;4978715;28;20076;-87
2023/01/07 06:10:13;;;;;;;3.83;2.73;;;5.30;99.90;;;;;;4976036;28;20031;-87
2023/01/07 06:12:38;;;;;;;4.87;3.17;;;5.20;99.90;;;;;;4976471;28;20035;-88
2023/01/07 06:15:06;;;;;;;5.30;3.57;;;5.20;99.90;;;;;;4975437;28;20097;-87
2023/01/07 06:17:32;;;;;;;5.27;3.30;;;5.10;99.90;;;;;;4975229;28;20528;-87
2023/01/07 06:19:57;;;;;;;6.50;3.17;;;5.10;99.90;;;;;;4979546;28;20121;-87
2023/01/07 06:22:23;;;;;;;4.40;2.90;;;5.00;99.90;;;;;;4976358;28;20042;-87
2023/01/07 06:24:48;;;;;;;5.90;3.17;;;4.90;99.90;;;;;;4977642;28;20067;-88
2023/01/07 06:27:14;;;;;;;8.53;3.10;;;4.90;99.90;;;;;;4975983;28;20054;-87
2023/01/07 06:29:39;;;;;;;7.57;3.60;;;4.80;99.90;;;;;;4976661;28;20447;-87
2023/01/07 06:32:06;;;;;;;5.73;3.47;;;4.70;99.90;;;;;;4975888;28;20061;-87
2023/01/07 06:34:32;;;;;;;4.60;3.40;;;4.70;99.90;;;;;;4979087;28;20110;-89
2023/01/07 06:36:57;;;;;;;6.57;3.47;;;4.60;99.90;;;;;;4981594;28;20042;-87
2023/01/07 06:39:23;;;;;;;6.97;3.47;;;4.50;99.90;;;;;;4977011;28;20027;-87
2023/01/07 06:41:49;;;;;;;4.50;3.23;;;4.50;99.90;;;;;;4980771;28;20023;-87
2023/01/07 06:44:14;;;;;;;4.00;3.00;;;4.40;99.90;;;;;;4983852;28;20074;-87
2023/01/07 06:46:40;;;;;;;7.80;3.23;;;4.40;99.90;;;;;;4989435;28;20088;-88
2023/01/07 06:49:05;;;;;;;9.43;3.80;;;4.40;99.90;;;;;;4977584;28;20388;-87
2023/01/07 06:51:31;;;;;;;7.03;3.50;;;4.30;99.90;;;;;;4984010;28;20371;-85
2023/01/07 06:53:57;;;;;;;4.40;3.30;;;4.30;99.90;;;;;;4982781;28;20015;-84
2023/01/07 06:56:23;;;;;;;5.93;3.60;;;4.20;99.90;;;;;;4983709;28;20022;-85
2023/01/07 06:58:51;;;;;;;4.97;3.27;;;4.10;99.90;;;;;;4987255;28;20039;-85
2023/01/07 07:01:16;;;;;;;4.47;3.20;;;4.10;99.90;;;;;;4976638;28;20034;-85
2023/01/07 07:03:42;;;;;;;4.93;3.10;;;4.10;99.90;;;;;;4987376;28;20041;-85
2023/01/07 07:06:07;;;;;;;4.57;3.13;;;4.00;99.90;;;;;;4984535;28;20038;-85
2023/01/07 07:08:33;;;;;;;6.93;3.20;;;4.00;99.90;;;;;;4973759;28;20045;-85
2023/01/07 07:10:58;;;;;;;6.97;3.80;;;4.00;99.90;;;;;;4976767;28;20111;-87
2023/01/07 07:13:26;;;;;;;5.83;3.23;;;3.90;99.90;;;;;;4975391;28;20058;-87
2023/01/07 07:15:52;;;;;;;5.97;3.20;;;3.90;99.90;;;;;;4975299;28;20023;-87
2023/01/07 07:18:17;;;;;;;6.47;3.47;;;3.90;99.90;;;;;;4976094;28;20030;-87
2023/01/07 07:20:45;;;;;;;5.03;3.37;;;3.90;99.90;;;;;;4983339;28;20061;-87
2023/01/07 07:23:11;;;;;;;5.87;3.60;;;3.80;99.90;;;;;;4989051;28;20058;-87
2023/01/07 07:25:36;;;;;;;12.90;7.63;;;3.80;99.90;;;;;;4983619;28;20030;-87
2023/01/07 07:28:02;;;;;;;20.97;12.67;;;3.80;99.90;;;;;;4992192;28;20045;-86
2023/01/07 07:30:28;;;;;;;13.63;8.87;;;3.70;99.90;;;;;;4975153;28;20031;-88
2023/01/07 07:32:53;;;;;;;9.87;6.10;;;3.70;99.90;;;;;;4977201;28;20046;-87
2023/01/07 07:35:19;;;;;;;9.23;4.40;;;3.70;99.90;;;;;;4974643;28;20114;-86
2023/01/07 07:37:44;;;;;;;7.53;4.10;;;3.70;99.90;;;;;;4978605;28;20026;-87
2023/01/07 07:40:10;;;;;;;9.40;3.60;;;3.70;99.90;;;;;;4990599;28;20039;-87
2023/01/07 07:42:37;;;;;;;12.17;4.37;;;3.70;99.90;;;;;;4987485;28;20493;-87
2023/01/07 07:45:07;;;;;;;6.80;4.60;;;3.60;99.90;;;;;;4982284;28;20039;-84
2023/01/07 07:47:33;;;;;;;6.00;4.20;;;3.60;99.90;;;;;;4981086;28;20034;-86
2023/01/07 07:49:58;;;;;;;7.63;4.17;;;3.60;99.90;;;;;;4978657;28;20026;-86
2023/01/07 07:52:24;;;;;;;16.47;11.53;;;3.60;99.90;;;;;;4979436;28;20023;-86
2023/01/07 07:54:49;;;;;;;22.53;13.00;;;3.60;99.90;;;;;;4977403;28;20116;-86
2023/01/07 07:57:17;;;;;;;12.47;7.77;;;3.60;99.90;;;;;;4976739;28;20521;-86
2023/01/07 07:59:43;;;;;;;11.13;7.77;;;3.60;99.90;;;;;;4976222;28;20081;-87
2023/01/07 08:02:12;;;;;;;11.07;7.77;;;3.60;99.90;;;;;;4991185;28;21497;-87
2023/01/07 08:04:38;;;;;;;11.23;5.20;;;3.70;99.90;;;;;;4974314;28;20038;-89
2023/01/07 08:07:04;;;;;;;8.10;5.53;;;3.70;99.90;;;;;;4981386;28;20022;-89
2023/01/07 08:09:29;;;;;;;9.73;6.00;;;3.60;99.90;;;;;;4982917;28;20018;-89
2023/01/07 08:11:55;;;;;;;9.67;4.90;;;3.70;99.90;;;;;;4978963;28;20045;-89
2023/01/07 08:14:21;;;;;;;9.57;5.57;;;3.70;99.90;;;;;;4978580;28;20416;-89
2023/01/07 08:16:46;;;;;;;9.33;5.30;;;3.70;99.90;;;;;;4988505;28;20065;-89
2023/01/07 08:19:12;;;;;;;8.20;5.00;;;3.70;99.90;;;;;;4972865;28;20027;-89
2023/01/07 08:21:40;;;;;;;7.37;4.90;;;3.80;99.90;;;;;;4977536;28;20026;-89
2023/01/07 08:24:09;;;;;;;7.87;5.70;;;3.80;99.90;;;;;;4973453;28;20439;-89
2023/01/07 08:26:39;;;;;;;7.40;5.10;;;3.80;99.90;;;;;;4988232;28;20081;-90
2023/01/07 08:29:12;;;;;;;7.63;5.13;;;3.80;99.90;;;;;;4970722;28;20019;-88
2023/01/07 08:31:48;;;;;;;10.20;5.60;;;3.80;99.90;;;;;;4980235;28;20038;-89
2023/01/07 08:34:18;;;;;;;9.07;4.83;;;3.80;99.90;;;;;;4981398;28;20038;-89
2023/01/07 08:37:00;;;;;;;9.73;5.50;;;3.80;99.90;;;;;;4978685;28;20538;-88
2023/01/07 08:39:33;;;;;;;8.67;5.70;;;3.90;99.90;;;;;;4981713;28;20177;-89
2023/01/07 08:42:01;;;;;;;9.70;5.77;;;4.00;99.90;;;;;;4986045;28;20192;-89
2023/01/07 08:44:29;;;;;;;11.03;5.30;;;3.90;99.90;;;;;;4993261;28;20046;-89
2023/01/07 08:46:54;;;;;;;9.93;5.57;;;4.00;99.90;;;;;;4978234;28;20023;-89
2023/01/07 09:51:19;;;;;;;4.30;2.77;;;6.10;99.90;;;;;;4845026;29;20084;-91
2023/01/07 10:05:32;;;;;;;;;;;;;;;;;;;;;
2023/01/07 11:22:39;;;;;;;4.80;2.70;;;8.70;99.90;;;;;;4859193;29;20045;-92
2023/01/07 11:42:38;;;;;;;4.23;2.50;;;8.90;99.90;;;;;;4889096;29;20244;-85
2023/01/07 11:45:12;;;;;;;5.23;2.67;;;9.00;99.90;;;;;;4896982;29;20454;-86
2023/01/07 11:47:45;;;;;;;4.47;2.57;;;9.10;99.90;;;;;;4989394;28;20100;-86
2023/01/07 11:50:24;;;;;;;3.43;2.37;;;9.10;99.90;;;;;;4975234;28;20289;-86
2023/01/07 11:53:05;;;;;;;4.97;2.73;;;9.20;99.90;;;;;;4988893;28;20014;-86
2023/01/07 11:55:31;;;;;;;3.00;2.30;;;9.30;99.90;;;;;;4991425;28;20030;-86
2023/01/07 11:57:57;;;;;;;4.63;2.20;;;9.40;99.90;;;;;;4988504;28;20525;-86
2023/01/07 12:00:24;;;;;;;3.87;2.03;;;9.50;99.90;;;;;;4972254;28;20022;-85
2023/01/07 12:03:08;;;;;;;3.57;2.30;;;9.60;99.90;;;;;;4991038;28;20030;-86
2023/01/07 12:05:33;;;;;;;3.03;2.30;;;9.60;99.90;;;;;;4974815;28;20026;-85
2023/01/07 12:07:59;;;;;;;4.53;2.10;;;9.70;99.90;;;;;;4972443;28;20030;-86
2023/01/07 12:10:27;;;;;;;2.87;1.90;;;9.90;99.90;;;;;;4991212;28;20023;-86
2023/01/07 12:12:52;;;;;;;3.43;2.17;;;9.90;99.90;;;;;;4987472;28;20046;-86
2023/01/07 12:15:22;;;;;;;3.25;2.10;;;10.00;99.90;;;;;;4986989;28;20100;-86
2023/01/07 12:17:54;;;;;;;3.42;2.03;;;10.10;99.90;;;;;;4988019;28;20097;-86
2023/01/07 12:20:47;;;;;;;2.88;1.85;;;10.10;99.90;;;;;;4973846;28;20018;-86
2023/01/07 12:23:34;;;;;;;6.53;2.58;;;10.20;99.90;;;;;;4968605;28;20027;-87
2023/01/07 12:26:20;;;;;;;2.95;1.98;;;10.30;99.90;;;;;;4989276;28;20022;-86
2023/01/07 12:29:01;;;;;;;2.40;1.85;;;10.40;99.90;;;;;;4986379;28;20053;-86
2023/01/07 12:32:16;;;;;;;2.58;2.00;;;10.40;99.90;;;;;;4971895;28;20045;-86
2023/01/07 12:34:50;;;;;;;3.00;1.90;;;10.50;99.90;;;;;;4943506;28;20038;-86
2023/01/07 12:37:37;;;;;;;2.47;1.73;;;10.60;99.90;;;;;;4988360;28;20450;-87
2023/01/07 12:40:09;;;;;;;2.05;1.73;;;10.60;99.90;;;;;;4986238;28;20014;-86
2023/01/07 12:42:39;;;;;;;2.60;1.75;;;10.70;99.90;;;;;;4985041;28;20018;-86
2023/01/07 12:45:15;;;;;;;5.32;2.00;;;10.90;99.90;;;;;;4987257;28;20034;-87
2023/01/07 12:47:49;;;;;;;2.95;1.65;;;10.80;99.90;;;;;;5012611;28;20096;-87
2023/01/07 12:50:26;;;;;;;5.03;1.70;;;10.90;99.90;;;;;;5011133;28;20018;-88
2023/01/07 12:53:19;;;;;;;5.50;2.03;;;10.90;99.90;;;;;;5012251;28;20033;-92
2023/01/07 12:55:57;;;;;;;3.67;2.60;;;10.80;99.90;;;;;;5014032;28;20053;-93
2023/01/07 12:58:31;;;;;;;3.83;1.50;;;10.80;99.90;;;;;;5013876;28;20057;-92
2023/01/07 13:01:15;;;;;;;4.20;1.83;;;10.80;99.90;;;;;;5013662;28;20084;-92
2023/01/07 13:04:00;;;;;;;2.97;1.50;;;10.80;99.90;;;;;;5013625;28;20057;-93
2023/01/07 13:06:46;;;;;;;2.00;1.40;;;10.80;99.90;;;;;;5014284;28;20092;-93
2023/01/07 13:09:20;;;;;;;2.40;1.63;;;10.70;99.90;;;;;;4980146;28;20134;-93
2023/01/07 13:14:44;;;;;;;1.92;1.30;;;10.70;99.90;;;;;;5032993;28;20156;-93
2023/01/07 13:17:23;;;;;;;2.35;1.33;;;10.60;99.90;;;;;;5016206;28;20080;-93
2023/01/07 13:19:49;;;;;;;3.33;1.90;;;10.60;99.90;;;;;;5017219;28;20117;-92
2023/01/07 13:22:38;;;;;;;3.55;1.60;;;10.50;99.90;;;;;;5016243;28;20021;-94
2023/01/07 13:25:11;;;;;;;2.45;1.52;;;10.40;99.90;;;;;;5024013;28;20014;-93
2023/01/07 13:28:03;;;;;;;2.00;1.40;;;10.30;99.90;;;;;;5036896;28;20104;-92
2023/01/07 13:31:09;;;;;;;3.33;1.80;;;10.30;99.90;;;;;;5036547;28;20018;-92
2023/01/07 13:33:46;;;;;;;2.33;1.42;;;10.10;99.90;;;;;;5036506;28;20055;-94
2023/01/07 13:36:22;;;;;;;2.30;1.70;;;10.10;99.90;;;;;;5036403;28;20049;-92
2023/01/07 13:38:54;;;;;;;2.33;1.60;;;10.00;99.90;;;;;;5036282;28;20366;-93
2023/01/07 13:41:38;;;;;;;2.93;1.60;;;10.00;99.90;;;;;;5037521;28;20056;-92
2023/01/07 13:44:20;;;;;;;3.30;1.70;;;9.90;99.90;;;;;;5018627;28;20486;-92
2023/01/07 13:46:47;;;;;;;2.13;1.40;;;9.80;99.90;;;;;;5018099;28;20053;-94
2023/01/07 13:49:25;;;;;;;2.87;1.63;;;9.70;99.90;;;;;;5036325;28;20505;-91
2023/01/07 13:51:51;;;;;;;1.70;1.43;;;9.70;99.90;;;;;;5036422;28;20474;-93
2023/01/07 13:54:48;;;;;;;3.43;1.73;;;9.60;99.90;;;;;;5018237;28;20044;-92
2023/01/07 13:57:22;;;;;;;3.70;1.50;;;9.60;99.90;;;;;;5035853;28;20455;-92
2023/01/07 13:59:51;;;;;;;2.35;1.52;;;9.50;99.90;;;;;;5036144;28;20417;-93
2023/01/07 14:02:18;;;;;;;3.67;1.40;;;9.50;99.90;;;;;;5018012;28;20044;-93
2023/01/07 14:05:10;;;;;;;5.57;2.50;;;9.40;99.90;;;;;;5018318;28;20038;-92
2023/01/07 14:07:51;;;;;;;3.30;1.90;;;9.40;99.90;;;;;;4982307;28;20030;-86
2023/01/07 14:10:32;;;;;;;3.90;1.97;;;9.40;99.90;;;;;;5019447;28;20030;-86
2023/01/07 14:13:26;;;;;;;3.70;1.87;;;9.30;99.90;;;;;;5013665;28;20053;-86
2023/01/07 14:16:27;;;;;;;4.33;1.70;;;9.30;99.90;;;;;;5002512;28;20025;-85
2023/01/07 14:19:12;;;;;;;2.50;1.80;;;9.20;99.90;;;;;;4986177;28;20050;-88
2023/01/07 14:21:47;;;;;;;6.67;1.50;;;9.20;99.90;;;;;;5015042;28;20039;-88
2023/01/07 14:24:24;;;;;;;;;;;9.20;99.90;;;;;;5012845;28;21554;-85
2023/01/07 14:27:10;;;;;;;4.03;1.80;;;9.20;99.90;;;;;;4997377;28;19908;-82
2023/01/07 14:29:44;;;;;;;2.60;1.80;;;9.20;99.90;;;;;;5004247;28;20686;-87
2023/01/07 14:32:33;;;;;;;3.00;1.93;;;9.20;99.90;;;;;;5013724;28;20029;-86
2023/01/07 14:35:07;;;;;;;4.10;2.60;;;9.20;99.90;;;;;;5005111;28;20037;-86
2023/01/07 14:37:45;;;;;;;19.80;15.75;;;9.10;99.90;;;;;;5001964;28;20033;-86
2023/01/07 14:40:32;;;;;;;5.90;5.30;;;9.10;99.90;;;;;;4999842;28;21038;-86
2023/01/07 14:43:22;;;;;;;2.60;1.93;;;9.00;99.90;;;;;;5001965;28;20045;-86
2023/01/07 14:45:49;;;;;;;2.77;1.63;;;8.90;99.90;;;;;;4989603;28;20455;-86
2023/01/07 14:48:16;;;;;;;2.90;1.67;;;8.90;99.90;;;;;;4977946;28;20027;-86
2023/01/07 15:23:31;;;;;;;;;;;;;;;;;;;;;
2023/01/07 15:30:00;;;;;;;4.47;2.33;;;7.60;99.90;;;;;;4932734;28;20050;-86
2023/01/07 15:36:51;;;;;;;4.27;2.87;;;7.40;99.90;;;;;;5005819;28;20064;-85
2023/01/07 15:47:53;;;;;;;7.17;2.67;;;6.90;99.90;;;;;;4786170;29;20069;-85
2023/01/07 16:44:42;;;;;;;;;;;;;;;;;;;;;
2023/01/07 17:12:04;;;;;;;9.57;5.03;;;4.70;99.90;;;;;;4786379;29;20062;-88
2023/01/07 17:25:50;;;;;;;;;;;;;;;;;;;;;
2023/01/07 17:29:04;;;;;;;10.50;5.07;;;4.40;99.90;;;;;;4792590;29;20391;-89
2023/01/07 17:32:20;;;;;;;10.27;5.43;;;4.40;99.90;;;;;;4849898;29;20036;-89
2023/01/07 17:53:00;;;;;;;6.33;3.47;;;4.00;99.90;;;;;;4880411;29;20081;-89
2023/01/07 17:55:27;;;;;;;;;;;3.90;99.90;;;;;;4872862;29;20032;-88
2023/01/07 17:57:54;;;;;;;7.33;4.00;;;3.90;99.90;;;;;;4996556;28;19905;-89
2023/01/07 18:00:24;;;;;;;11.60;5.80;;;3.80;99.90;;;;;;4998817;28;20026;-88
2023/01/07 18:02:52;;;;;;;17.30;8.80;;;3.80;99.90;;;;;;5016292;28;20403;-89
2023/01/07 18:05:21;;;;;;;23.00;12.33;;;3.70;99.90;;;;;;5016474;28;20418;-89
2023/01/07 18:07:51;;;;;;;27.77;14.80;;;3.70;99.90;;;;;;5015987;28;20045;-89
2023/01/07 18:10:20;;;;;;;27.70;15.13;;;3.70;99.90;;;;;;5015928;28;20060;-89
2023/01/07 18:12:46;;;;;;;20.60;12.47;;;3.60;99.90;;;;;;5016104;28;20036;-88
2023/01/07 18:15:24;;;;;;;17.47;8.60;;;3.60;99.90;;;;;;5011053;28;20494;-88
2023/01/07 18:17:51;;;;;;;14.20;8.80;;;3.50;99.90;;;;;;4998567;28;20122;-88
2023/01/07 18:20:21;;;;;;;9.77;6.57;;;3.40;99.90;;;;;;5016211;28;20021;-88
2023/01/07 18:22:47;;;;;;;9.47;6.27;;;3.40;99.90;;;;;;5015918;28;20446;-88
2023/01/07 18:25:21;;;;;;;9.23;6.30;;;3.30;99.90;;;;;;5015963;28;20030;-88
2023/01/07 18:27:51;;;;;;;10.10;5.90;;;3.30;99.90;;;;;;5015536;28;20026;-88
2023/01/07 18:30:18;;;;;;;16.07;9.93;;;3.30;99.90;;;;;;5014228;28;20102;-83
2023/01/07 18:32:52;;;;;;;22.63;14.90;;;3.30;99.90;;;;;;5012949;28;20068;-84
2023/01/07 18:35:18;;;;;;;22.60;13.30;;;3.30;99.90;;;;;;5012928;28;20061;-84
2023/01/07 18:37:47;;;;;;;19.30;12.63;;;3.20;99.90;;;;;;5013544;28;20451;-84
2023/01/07 18:40:16;;;;;;;16.07;11.10;;;3.10;99.90;;;;;;4997484;28;20018;-85
2023/01/07 18:42:45;;;;;;;19.57;11.80;;;3.10;99.90;;;;;;4995078;28;20041;-84
2023/01/07 18:45:13;;;;;;;17.03;10.47;;;3.10;99.90;;;;;;4993189;28;20033;-84
2023/01/07 18:47:42;;;;;;;15.70;9.10;;;3.00;99.90;;;;;;4995594;28;20048;-84
2023/01/07 18:50:10;;;;;;;12.73;8.40;;;3.00;99.90;;;;;;4994400;28;20036;-84
2023/01/07 18:52:43;;;;;;;13.60;8.73;;;3.00;99.90;;;;;;4991336;28;20029;-84
2023/01/07 18:55:10;;;;;;;13.73;8.70;;;3.00;99.90;;;;;;4996754;28;20422;-83